Time;durP1;ratioP1;P1;durP2;ratioP2;P2;SDS_P1;SDS_P2;PMS_P1;PMS_P2;Temp;Humidity;BMP_temperature;BMP_pressure;BME280_temperature;BME280_humidity;BME280_pressure;Samples;Min_cycle;Max_cycle;Signal;HPM_P1;HPM_P2
2023/07/09 00:00:15;;;;;;;9.57;6.65;;;22.60;99.90;;;;;;4868750;29;20061;-66
2023/07/09 00:02:41;;;;;;;10.10;6.45;;;22.50;99.90;;;;;;4863536;29;20133;-66
2023/07/09 00:05:14;;;;;;;11.52;6.45;;;22.60;99.90;;;;;;4901899;29;20213;-66
2023/07/09 00:07:41;;;;;;;10.18;5.93;;;22.50;99.90;;;;;;4903259;29;20096;-66
2023/07/09 00:10:20;;;;;;;10.48;6.57;;;22.50;99.90;;;;;;4869010;29;20053;-66
2023/07/09 00:12:47;;;;;;;13.23;6.28;;;22.50;99.90;;;;;;4869441;29;20049;-66
2023/07/09 00:15:18;;;;;;;10.32;6.05;;;22.50;99.90;;;;;;4882216;29;20053;-66
2023/07/09 00:17:44;;;;;;;10.80;6.70;;;22.40;99.90;;;;;;4885330;29;20086;-66
2023/07/09 00:20:18;;;;;;;12.95;6.85;;;22.40;99.90;;;;;;4870736;29;20118;-66
2023/07/09 00:22:51;;;;;;;14.43;6.80;;;22.40;99.90;;;;;;4853328;29;20057;-66
2023/07/09 00:25:19;;;;;;;10.93;6.53;;;22.40;99.90;;;;;;4869765;29;20069;-66
2023/07/09 00:27:48;;;;;;;8.65;5.82;;;22.30;99.90;;;;;;4871740;29;20066;-66
2023/07/09 00:30:21;;;;;;;15.40;6.63;;;22.40;99.90;;;;;;4887311;29;20053;-66
2023/07/09 00:32:52;;;;;;;9.18;6.40;;;22.40;99.90;;;;;;4889306;29;20053;-66
2023/07/09 00:35:18;;;;;;;10.38;7.00;;;22.40;99.90;;;;;;4870536;29;20061;-66
2023/07/09 00:37:45;;;;;;;10.63;6.60;;;22.40;99.90;;;;;;4888679;29;20045;-66
2023/07/09 00:40:18;;;;;;;10.75;6.65;;;22.40;99.90;;;;;;4887311;23;20049;-67
2023/07/09 00:42:46;;;;;;;12.77;6.63;;;22.30;99.90;;;;;;4877257;29;20117;-67
2023/07/09 00:45:19;;;;;;;10.45;6.80;;;22.20;99.90;;;;;;4886414;29;20128;-66
2023/07/09 00:47:58;;;;;;;8.95;6.00;;;22.20;99.90;;;;;;4904039;23;20563;-67
2023/07/09 00:50:36;;;;;;;12.88;6.65;;;22.20;99.90;;;;;;4880936;29;20743;-67
2023/07/09 00:53:12;;;;;;;14.23;6.38;;;22.20;99.90;;;;;;4897102;29;20052;-66
2023/07/09 00:55:42;;;;;;;11.88;7.22;;;22.20;99.90;;;;;;4895743;29;20135;-66
2023/07/09 00:58:15;;;;;;;15.07;6.43;;;22.20;99.90;;;;;;4867585;29;20510;-66
2023/07/09 01:00:52;;;;;;;9.15;6.18;;;22.20;99.90;;;;;;4861633;29;20084;-66
2023/07/09 01:03:25;;;;;;;11.20;6.60;;;22.20;99.90;;;;;;4878077;29;20412;-67
2023/07/09 01:05:55;;;;;;;9.68;6.03;;;22.00;99.90;;;;;;4873275;29;20056;-67
2023/07/09 01:08:21;;;;;;;12.65;7.07;;;22.00;99.90;;;;;;4896907;29;20053;-67
2023/07/09 01:10:47;;;;;;;12.75;6.88;;;21.90;99.90;;;;;;4897244;29;20407;-67
2023/07/09 01:13:12;;;;;;;10.27;6.90;;;22.00;99.90;;;;;;4880096;29;20118;-67
2023/07/09 01:15:39;;;;;;;10.05;6.10;;;21.90;99.90;;;;;;4896821;29;20048;-67
2023/07/09 01:18:05;;;;;;;8.65;6.63;;;21.90;99.90;;;;;;4879955;29;20049;-67
2023/07/09 01:20:31;;;;;;;11.98;7.35;;;21.80;99.90;;;;;;4879053;29;20056;-67
2023/07/09 01:23:00;;;;;;;9.02;6.57;;;21.70;99.90;;;;;;4896837;29;20135;-67
2023/07/09 01:25:28;;;;;;;9.20;6.70;;;21.70;99.90;;;;;;4896500;29;20052;-67
2023/07/09 01:27:54;;;;;;;10.77;6.82;;;21.70;99.90;;;;;;4879639;29;20057;-67
2023/07/09 01:30:26;;;;;;;14.85;7.63;;;21.70;99.90;;;;;;4895492;29;20063;-67
2023/07/09 01:32:57;;;;;;;10.82;7.15;;;21.60;99.90;;;;;;4877988;29;20057;-67
2023/07/09 01:35:24;;;;;;;11.80;6.93;;;21.60;99.90;;;;;;4877870;29;20473;-67
2023/07/09 01:37:50;;;;;;;10.18;6.78;;;21.60;99.90;;;;;;4877477;29;20536;-66
2023/07/09 01:40:19;;;;;;;9.60;6.65;;;21.60;99.90;;;;;;4877818;29;20049;-67
2023/07/09 01:42:45;;;;;;;8.73;6.43;;;21.50;99.90;;;;;;4877368;29;20056;-67
2023/07/09 01:45:12;;;;;;;14.43;7.07;;;21.50;99.90;;;;;;4877418;29;20049;-67
2023/07/09 01:47:39;;;;;;;11.75;6.78;;;21.50;99.90;;;;;;4877514;29;20144;-67
2023/07/09 01:50:09;;;;;;;10.73;7.10;;;21.50;99.90;;;;;;4877673;29;20394;-67
2023/07/09 01:52:37;;;;;;;11.20;7.18;;;21.40;99.90;;;;;;4877357;29;20082;-67
2023/07/09 01:55:03;;;;;;;9.65;7.00;;;21.40;99.90;;;;;;4877261;29;20049;-67
2023/07/09 01:57:34;;;;;;;9.70;6.90;;;21.50;99.90;;;;;;4876985;29;20090;-67
2023/07/09 02:00:08;;;;;;;11.60;7.70;;;21.40;99.90;;;;;;4877450;29;20068;-67
2023/07/09 02:02:35;;;;;;;10.13;7.03;;;21.40;99.90;;;;;;4885970;29;20048;-67
2023/07/09 02:05:02;;;;;;;12.15;6.68;;;21.40;99.90;;;;;;4860634;29;20509;-67
2023/07/09 02:07:28;;;;;;;10.02;7.15;;;21.40;99.90;;;;;;4877314;29;20056;-67
2023/07/09 02:09:54;;;;;;;11.02;6.68;;;21.30;99.90;;;;;;4877203;29;20057;-67
2023/07/09 02:12:19;;;;;;;17.02;6.90;;;21.20;99.90;;;;;;4888872;29;20078;-67
2023/07/09 02:14:45;;;;;;;12.65;8.07;;;21.30;99.90;;;;;;4895910;29;20055;-67
2023/07/09 02:17:13;;;;;;;9.35;6.60;;;21.30;99.90;;;;;;4895800;29;20052;-67
2023/07/09 02:19:39;;;;;;;15.65;7.60;;;21.30;99.90;;;;;;4895607;29;20063;-67
2023/07/09 02:22:06;;;;;;;12.55;6.97;;;21.20;99.90;;;;;;4878825;29;20123;-67
2023/07/09 02:24:32;;;;;;;9.65;7.32;;;21.20;99.90;;;;;;4895378;29;20107;-67
2023/07/09 02:27:01;;;;;;;8.77;6.40;;;21.10;99.90;;;;;;4895426;29;20477;-67
2023/07/09 02:29:28;;;;;;;10.27;6.95;;;21.10;99.90;;;;;;4895838;29;20052;-67
2023/07/09 02:31:56;;;;;;;8.57;6.40;;;21.10;99.90;;;;;;4895065;29;20045;-67
2023/07/09 02:34:25;;;;;;;10.13;7.15;;;21.10;99.90;;;;;;4878911;29;20400;-67
2023/07/09 02:36:52;;;;;;;12.45;6.68;;;21.10;99.90;;;;;;4895346;29;20096;-67
2023/07/09 02:39:19;;;;;;;9.95;6.53;;;21.00;99.90;;;;;;4895309;29;20052;-67
2023/07/09 02:41:45;;;;;;;10.23;6.88;;;21.00;99.90;;;;;;4895258;29;20088;-67
2023/07/09 02:44:10;;;;;;;13.35;7.00;;;21.00;99.90;;;;;;4893287;29;20094;-67
2023/07/09 02:46:36;;;;;;;12.55;6.85;;;20.90;99.90;;;;;;4876789;29;20120;-66
2023/07/09 02:49:04;;;;;;;11.55;7.15;;;21.00;99.90;;;;;;4877141;29;20580;-67
2023/07/09 02:51:30;;;;;;;11.05;7.45;;;21.00;99.90;;;;;;4859953;29;20079;-66
2023/07/09 02:53:58;;;;;;;13.20;7.53;;;21.00;99.90;;;;;;4875674;29;20061;-67
2023/07/09 02:56:24;;;;;;;11.63;7.13;;;20.80;99.90;;;;;;4860081;29;20465;-67
2023/07/09 02:58:50;;;;;;;12.95;6.95;;;20.80;99.90;;;;;;4876740;29;20056;-67
2023/07/09 03:01:17;;;;;;;11.07;7.32;;;20.70;99.90;;;;;;4876622;29;20132;-66
2023/07/09 03:03:43;;;;;;;12.68;7.97;;;20.70;99.90;;;;;;4876861;29;20179;-67
2023/07/09 03:06:10;;;;;;;14.05;7.80;;;20.60;99.90;;;;;;4859845;29;20057;-67
2023/07/09 03:08:35;;;;;;;12.90;8.05;;;20.60;99.90;;;;;;4869941;29;20050;-67
2023/07/09 03:11:10;;;;;;;13.23;7.65;;;20.50;99.90;;;;;;4913593;29;20547;-67
2023/07/09 03:13:36;;;;;;;10.70;7.63;;;20.50;99.90;;;;;;4914041;29;20062;-67
2023/07/09 03:16:02;;;;;;;11.32;7.45;;;20.60;99.90;;;;;;4897398;29;20143;-66
2023/07/09 03:18:27;;;;;;;12.43;7.72;;;20.60;99.90;;;;;;4913937;29;20764;-67
2023/07/09 03:20:53;;;;;;;11.18;8.40;;;20.50;99.90;;;;;;4897249;29;20051;-67
2023/07/09 03:23:19;;;;;;;11.55;7.68;;;20.50;99.90;;;;;;4914142;29;20052;-67
2023/07/09 03:25:44;;;;;;;14.68;7.47;;;20.50;99.90;;;;;;4913322;29;20044;-67
2023/07/09 03:28:13;;;;;;;11.18;7.80;;;20.60;99.90;;;;;;4914008;29;20055;-67
2023/07/09 03:30:43;;;;;;;10.10;7.57;;;20.40;99.90;;;;;;4913889;29;20056;-67
2023/07/09 03:33:13;;;;;;;11.70;8.38;;;20.50;99.90;;;;;;4914133;29;20082;-67
2023/07/09 03:35:39;;;;;;;12.07;7.32;;;20.60;99.90;;;;;;4914643;29;20059;-66
2023/07/09 03:38:06;;;;;;;11.30;7.35;;;20.50;99.90;;;;;;4899025;29;20131;-67
2023/07/09 03:40:32;;;;;;;10.60;7.28;;;20.50;99.90;;;;;;4896855;29;20056;-67
2023/07/09 03:42:58;;;;;;;10.93;6.95;;;20.50;99.90;;;;;;4914385;29;20063;-67
2023/07/09 03:45:24;;;;;;;10.18;7.97;;;20.50;99.90;;;;;;4917359;29;20090;-67
2023/07/09 03:47:50;;;;;;;9.80;7.28;;;20.50;99.90;;;;;;4917456;29;20095;-67
2023/07/09 03:50:16;;;;;;;12.15;7.63;;;20.50;99.90;;;;;;4917220;29;20095;-67
2023/07/09 03:52:42;;;;;;;10.50;7.38;;;20.60;99.90;;;;;;4917233;29;20908;-67
2023/07/09 03:55:08;;;;;;;14.15;7.85;;;20.50;99.90;;;;;;4900764;29;20091;-67
2023/07/09 03:57:35;;;;;;;12.32;7.80;;;20.50;99.90;;;;;;4917430;29;20052;-67
2023/07/09 04:00:03;;;;;;;11.77;8.13;;;20.50;99.90;;;;;;4916940;29;20480;-67
2023/07/09 04:02:29;;;;;;;11.88;8.50;;;20.50;99.90;;;;;;4917174;29;20058;-67
2023/07/09 04:04:55;;;;;;;14.90;8.02;;;20.60;99.90;;;;;;4917296;29;20064;-67
2023/07/09 04:07:21;;;;;;;11.65;8.43;;;20.50;99.90;;;;;;4916843;29;20055;-67
2023/07/09 04:09:46;;;;;;;14.45;8.05;;;20.50;99.90;;;;;;4917026;29;20041;-67
2023/07/09 04:12:12;;;;;;;12.27;7.82;;;20.50;99.90;;;;;;4917036;29;20138;-67
2023/07/09 04:14:39;;;;;;;16.92;8.00;;;20.60;99.90;;;;;;4899898;29;20060;-67
2023/07/09 04:17:05;;;;;;;12.68;8.35;;;20.70;99.90;;;;;;4916664;29;20118;-67
2023/07/09 04:19:30;;;;;;;11.65;8.55;;;20.70;99.90;;;;;;4916974;29;20616;-67
2023/07/09 04:21:56;;;;;;;10.43;7.55;;;20.80;99.90;;;;;;4916740;29;20048;-67
2023/07/09 04:24:22;;;;;;;12.18;8.50;;;20.80;99.90;;;;;;4899678;29;20056;-67
2023/07/09 04:26:48;;;;;;;10.52;8.18;;;20.90;99.90;;;;;;4916657;29;20040;-67
2023/07/09 04:29:13;;;;;;;14.43;8.98;;;21.00;99.90;;;;;;4916582;29;20145;-66
2023/07/09 04:31:40;;;;;;;15.52;7.97;;;21.00;99.90;;;;;;4899353;29;20067;-67
2023/07/09 04:34:07;;;;;;;11.20;7.35;;;21.00;99.90;;;;;;4916532;29;20385;-66
2023/07/09 04:36:33;;;;;;;11.30;7.68;;;21.00;99.90;;;;;;4916513;29;20052;-67
2023/07/09 04:38:58;;;;;;;16.45;8.00;;;21.10;99.90;;;;;;4915953;29;20420;-67
2023/07/09 04:41:24;;;;;;;12.38;8.43;;;21.10;99.90;;;;;;4916526;29;20048;-67
2023/07/09 04:43:50;;;;;;;16.60;9.10;;;21.20;99.90;;;;;;4916258;29;20059;-67
2023/07/09 04:46:16;;;;;;;12.40;7.88;;;21.20;99.90;;;;;;4915920;29;20059;-67
2023/07/09 04:48:42;;;;;;;18.58;8.50;;;21.20;99.90;;;;;;4916431;29;20048;-67
2023/07/09 04:51:08;;;;;;;9.52;7.60;;;21.30;99.90;;;;;;4916387;29;20455;-67
2023/07/09 04:53:34;;;;;;;16.60;8.10;;;21.30;99.90;;;;;;4915826;29;20151;-67
2023/07/09 04:56:02;;;;;;;14.65;8.35;;;21.40;99.90;;;;;;4915170;29;20135;-67
2023/07/09 04:58:28;;;;;;;15.80;7.60;;;21.50;99.90;;;;;;4883540;29;20120;-68
2023/07/09 05:00:58;;;;;;;11.77;8.55;;;21.50;99.90;;;;;;4916120;29;20135;-67
2023/07/09 05:03:24;;;;;;;10.98;7.50;;;21.60;99.90;;;;;;4915962;29;20055;-67
2023/07/09 05:05:50;;;;;;;10.70;8.23;;;21.60;99.90;;;;;;4915936;29;20063;-67
2023/07/09 05:08:16;;;;;;;13.93;8.27;;;21.80;99.90;;;;;;4915782;29;20071;-67
2023/07/09 05:10:49;;;;;;;9.98;7.13;;;21.90;99.90;;;;;;4915826;29;20059;-67
2023/07/09 05:13:16;;;;;;;13.48;8.02;;;22.00;99.90;;;;;;4915844;29;20103;-67
2023/07/09 05:15:44;;;;;;;14.35;9.05;;;22.10;99.90;;;;;;4915694;29;20507;-67
2023/07/09 05:18:11;;;;;;;12.40;8.00;;;22.20;99.90;;;;;;4915877;29;20060;-67
2023/07/09 05:20:36;;;;;;;11.30;7.60;;;22.30;99.90;;;;;;4915489;29;20048;-67
2023/07/09 05:23:02;;;;;;;14.05;7.78;;;22.40;99.90;;;;;;4898317;29;20075;-67
2023/07/09 05:25:28;;;;;;;12.93;9.02;;;22.50;99.90;;;;;;4915372;29;20055;-67
2023/07/09 05:27:54;;;;;;;15.02;8.57;;;22.50;99.90;;;;;;4882742;29;20056;-67
2023/07/09 05:30:20;;;;;;;14.77;8.07;;;22.50;99.90;;;;;;4915199;29;20048;-67
2023/07/09 05:32:46;;;;;;;13.02;8.45;;;22.50;99.90;;;;;;4915614;29;20085;-67
2023/07/09 05:35:12;;;;;;;13.30;8.30;;;22.70;99.90;;;;;;4915100;29;20052;-67
2023/07/09 05:37:38;;;;;;;12.85;8.70;;;22.70;99.90;;;;;;4915249;29;20064;-67
2023/07/09 05:40:05;;;;;;;13.85;8.25;;;22.70;99.90;;;;;;4898168;29;20135;-67
2023/07/09 05:42:31;;;;;;;10.90;8.27;;;22.80;99.90;;;;;;4898364;29;20452;-67
2023/07/09 05:44:58;;;;;;;12.30;7.82;;;22.70;99.90;;;;;;4915460;29;20118;-67
2023/07/09 05:47:24;;;;;;;14.98;9.63;;;22.70;99.90;;;;;;4914784;29;20063;-67
2023/07/09 05:49:50;;;;;;;20.80;10.15;;;22.70;99.90;;;;;;4915113;29;20063;-67
2023/07/09 05:52:17;;;;;;;13.52;8.80;;;22.60;99.90;;;;;;4878284;29;20057;-67
2023/07/09 05:54:43;;;;;;;12.77;8.77;;;22.70;99.90;;;;;;4894149;29;20512;-67
2023/07/09 05:57:08;;;;;;;11.98;8.30;;;22.70;99.90;;;;;;4884397;29;20053;-67
2023/07/09 05:59:34;;;;;;;15.43;8.80;;;22.80;99.90;;;;;;4877532;29;20064;-67
2023/07/09 06:02:01;;;;;;;12.20;8.35;;;22.80;99.90;;;;;;4877584;29;20060;-67
2023/07/09 06:04:27;;;;;;;14.05;8.13;;;22.90;99.90;;;;;;4886091;29;20048;-67
2023/07/09 06:06:53;;;;;;;14.02;8.38;;;23.00;99.90;;;;;;4879539;29;20064;-66
2023/07/09 06:09:19;;;;;;;12.35;8.25;;;23.00;99.90;;;;;;4896371;29;20131;-67
2023/07/09 06:11:45;;;;;;;13.23;8.50;;;23.00;99.90;;;;;;4879543;29;20135;-66
2023/07/09 06:14:10;;;;;;;12.00;8.70;;;23.10;99.90;;;;;;4896060;29;20075;-66
2023/07/09 06:16:37;;;;;;;20.23;8.77;;;23.20;99.90;;;;;;4895935;29;20051;-66
2023/07/09 06:19:03;;;;;;;12.82;8.38;;;23.20;99.90;;;;;;4895860;29;20059;-66
2023/07/09 06:21:29;;;;;;;14.20;8.48;;;23.30;99.90;;;;;;4896650;29;20056;-66
2023/07/09 06:23:54;;;;;;;12.60;8.15;;;23.40;99.90;;;;;;4897373;29;20044;-64
2023/07/09 06:26:20;;;;;;;14.98;8.05;;;23.40;99.90;;;;;;4896073;29;20484;-65
2023/07/09 06:28:46;;;;;;;12.35;8.85;;;23.40;99.90;;;;;;4896051;29;20120;-65
2023/07/09 06:31:12;;;;;;;11.02;8.10;;;23.50;99.90;;;;;;4895787;29;20076;-64
2023/07/09 06:33:38;;;;;;;11.77;8.25;;;23.60;99.90;;;;;;4877864;29;20137;-64
2023/07/09 06:36:04;;;;;;;12.93;7.88;;;23.60;99.90;;;;;;4877189;29;20413;-64
2023/07/09 06:38:30;;;;;;;10.45;7.57;;;23.70;99.90;;;;;;4859892;29;20072;-65
2023/07/09 06:40:57;;;;;;;13.45;8.05;;;23.80;99.90;;;;;;4877113;29;20053;-64
2023/07/09 06:43:22;;;;;;;14.05;8.25;;;24.00;99.90;;;;;;4876937;29;20057;-64
2023/07/09 06:45:54;;;;;;;10.40;7.72;;;24.00;99.90;;;;;;4863504;29;20120;-64
2023/07/09 06:48:20;;;;;;;12.25;7.55;;;24.10;99.90;;;;;;4894753;29;20517;-65
2023/07/09 06:50:46;;;;;;;15.93;8.07;;;24.20;99.90;;;;;;4895041;29;20067;-65
2023/07/09 06:53:12;;;;;;;11.32;8.52;;;24.30;99.90;;;;;;4896986;29;20049;-65
2023/07/09 06:55:38;;;;;;;15.95;8.10;;;24.40;99.90;;;;;;4894947;29;20396;-65
2023/07/09 06:58:04;;;;;;;15.32;8.57;;;24.50;99.90;;;;;;4888833;29;20128;-65
2023/07/09 07:00:29;;;;;;;12.52;8.05;;;24.50;99.90;;;;;;4876626;29;20428;-64
2023/07/09 07:02:55;;;;;;;15.32;9.13;;;24.60;99.90;;;;;;4876542;29;20470;-64
2023/07/09 07:05:21;;;;;;;14.32;7.85;;;24.70;99.90;;;;;;4876920;29;20136;-65
2023/07/09 07:07:47;;;;;;;14.88;8.43;;;24.80;99.90;;;;;;4876704;29;20128;-65
2023/07/09 07:10:12;;;;;;;13.40;8.82;;;24.90;99.90;;;;;;4859919;29;20057;-64
2023/07/09 07:12:46;;;;;;;13.63;8.43;;;25.00;99.90;;;;;;4876958;29;20121;-65
2023/07/09 07:15:14;;;;;;;16.08;8.45;;;25.00;99.90;;;;;;4876896;29;20057;-65
2023/07/09 07:17:40;;;;;;;12.95;7.47;;;25.20;99.90;;;;;;4859944;29;20079;-65
2023/07/09 07:20:08;;;;;;;12.32;7.70;;;25.20;99.90;;;;;;4880237;29;20057;-65
2023/07/09 07:22:33;;;;;;;13.43;8.32;;;25.30;99.90;;;;;;4863160;29;20053;-65
2023/07/09 07:24:59;;;;;;;12.43;7.47;;;25.30;99.90;;;;;;4880200;29;20076;-64
2023/07/09 07:27:25;;;;;;;12.07;8.10;;;25.30;99.90;;;;;;4880473;29;20053;-65
2023/07/09 07:29:50;;;;;;;14.52;8.60;;;25.40;99.90;;;;;;4863381;29;20076;-65
2023/07/09 07:32:16;;;;;;;15.35;8.32;;;25.50;99.90;;;;;;4880117;29;20545;-65
2023/07/09 07:34:41;;;;;;;12.73;7.32;;;25.50;99.90;;;;;;4880020;29;20124;-65
2023/07/09 07:37:07;;;;;;;14.35;7.57;;;25.60;99.90;;;;;;4880174;29;20057;-65
2023/07/09 07:39:33;;;;;;;13.00;7.90;;;25.80;99.90;;;;;;4879923;29;20061;-65
2023/07/09 07:41:58;;;;;;;14.90;8.23;;;25.80;99.90;;;;;;4879709;29;20061;-65
2023/07/09 07:44:24;;;;;;;11.80;7.13;;;25.90;99.90;;;;;;4863158;29;20080;-64
2023/07/09 07:46:50;;;;;;;10.25;6.90;;;26.00;99.90;;;;;;4879534;29;20067;-65
2023/07/09 07:49:16;;;;;;;10.40;7.47;;;26.00;99.90;;;;;;4879753;29;20053;-65
2023/07/09 07:51:42;;;;;;;11.60;7.55;;;26.10;99.90;;;;;;4879688;29;20051;-65
2023/07/09 07:54:09;;;;;;;9.98;6.75;;;26.30;99.90;;;;;;4879726;29;20053;-65
2023/07/09 07:56:36;;;;;;;14.35;7.50;;;26.30;99.90;;;;;;4879650;29;20135;-64
2023/07/09 07:59:02;;;;;;;14.35;7.63;;;26.40;99.90;;;;;;4879605;29;20466;-65
2023/07/09 08:01:28;;;;;;;16.27;6.47;;;26.60;99.90;;;;;;4879743;29;20441;-65
2023/07/09 08:03:54;;;;;;;11.13;7.13;;;26.60;99.90;;;;;;4879792;29;20124;-66
2023/07/09 08:06:21;;;;;;;12.48;7.57;;;26.70;99.90;;;;;;4879580;29;20059;-65
2023/07/09 08:08:46;;;;;;;13.85;7.90;;;26.90;99.90;;;;;;4879808;29;20053;-65
2023/07/09 08:11:12;;;;;;;13.10;7.05;;;26.90;99.90;;;;;;4879690;29;20061;-65
2023/07/09 08:13:38;;;;;;;13.27;7.18;;;27.00;99.90;;;;;;4879801;29;20136;-65
2023/07/09 08:16:05;;;;;;;9.55;6.78;;;27.10;99.90;;;;;;4879602;29;20545;-64
2023/07/09 08:18:31;;;;;;;10.15;6.85;;;27.20;99.90;;;;;;4879924;29;20080;-65
2023/07/09 08:21:01;;;;;;;11.00;6.95;;;27.30;99.90;;;;;;4879786;29;20080;-64
2023/07/09 08:23:26;;;;;;;11.05;6.80;;;27.40;99.90;;;;;;4880519;29;20123;-65
2023/07/09 08:25:57;;;;;;;13.45;7.22;;;27.50;99.90;;;;;;4879557;29;20825;-64
2023/07/09 08:28:23;;;;;;;11.45;6.82;;;27.60;99.90;;;;;;4879424;29;20113;-64
2023/07/09 08:30:52;;;;;;;17.20;7.20;;;27.60;99.90;;;;;;4861125;29;20049;-64
2023/07/09 08:33:18;;;;;;;13.48;6.65;;;27.70;99.90;;;;;;4879033;29;20059;-65
2023/07/09 08:35:44;;;;;;;14.00;7.70;;;27.80;99.90;;;;;;4879262;29;20053;-64
2023/07/09 08:38:10;;;;;;;11.73;6.68;;;27.80;99.90;;;;;;4878854;29;20057;-65
2023/07/09 08:40:41;;;;;;;12.48;7.00;;;27.80;99.90;;;;;;4879079;29;20128;-65
2023/07/09 08:43:32;;;;;;;9.73;6.15;;;27.80;99.90;;;;;;4879201;29;20061;-65
2023/07/09 08:46:23;;;;;;;11.82;7.03;;;27.90;99.90;;;;;;4879038;29;20792;-64
2023/07/09 08:48:52;;;;;;;17.55;6.60;;;28.00;99.90;;;;;;4841620;29;20053;-64
2023/07/09 08:51:51;;;;;;;12.27;6.75;;;28.10;99.90;;;;;;4859545;29;20057;-64
2023/07/09 08:54:36;;;;;;;12.27;6.55;;;28.20;99.90;;;;;;4837824;29;20057;-64
2023/07/09 08:57:17;;;;;;;9.13;5.90;;;28.30;99.90;;;;;;4857969;29;20108;-64
2023/07/09 08:59:44;;;;;;;11.00;6.72;;;28.50;99.90;;;;;;4858633;29;20056;-64
2023/07/09 09:02:33;;;;;;;10.82;6.88;;;28.40;99.90;;;;;;4859290;29;20060;-64
2023/07/09 09:04:59;;;;;;;12.35;6.03;;;28.60;99.90;;;;;;4860186;29;20089;-64
2023/07/09 09:07:44;;;;;;;12.20;6.25;;;28.50;99.90;;;;;;4859115;29;20073;-64
2023/07/09 09:10:31;;;;;;;10.07;6.10;;;28.60;99.90;;;;;;4857026;29;20058;-65
2023/07/09 09:13:24;;;;;;;12.63;6.07;;;28.70;99.90;;;;;;4858173;29;20068;-64
2023/07/09 09:15:51;;;;;;;12.27;6.40;;;28.60;99.90;;;;;;4858525;29;20057;-64
2023/07/09 09:18:44;;;;;;;12.75;6.38;;;28.80;99.90;;;;;;4858927;29;20057;-64
2023/07/09 09:21:29;;;;;;;8.27;5.97;;;28.80;99.90;;;;;;4858572;29;20528;-65
2023/07/09 09:24:01;;;;;;;11.65;6.60;;;28.80;99.90;;;;;;4859005;29;20045;-65
2023/07/09 09:26:35;;;;;;;8.93;6.10;;;29.10;99.90;;;;;;4858978;29;20451;-64
2023/07/09 09:29:09;;;;;;;12.15;6.03;;;29.20;99.90;;;;;;4858270;29;20102;-66
2023/07/09 09:31:35;;;;;;;11.48;6.05;;;29.20;99.90;;;;;;4858569;29;20092;-66
2023/07/09 09:34:01;;;;;;;11.63;5.88;;;29.30;99.90;;;;;;4858769;29;20094;-67
2023/07/09 09:36:27;;;;;;;12.98;6.60;;;29.50;99.90;;;;;;4858580;29;20072;-67
2023/07/09 09:38:53;;;;;;;9.85;5.57;;;29.50;99.90;;;;;;4858603;29;20066;-67
2023/07/09 09:41:25;;;;;;;12.95;6.28;;;29.50;99.90;;;;;;4857944;29;20061;-67
2023/07/09 09:43:54;;;;;;;11.05;6.22;;;29.50;99.90;;;;;;4842052;29;20095;-66
2023/07/09 09:46:26;;;;;;;10.75;6.25;;;29.40;99.90;;;;;;4858361;29;20152;-66
2023/07/09 09:48:59;;;;;;;12.10;5.00;;;29.30;99.90;;;;;;4838780;29;1116506;-66
2023/07/09 09:51:26;;;;;;;7.57;4.93;;;29.50;99.90;;;;;;4877732;29;20160;-66
2023/07/09 09:53:59;;;;;;;10.30;5.22;;;29.60;99.90;;;;;;4877863;29;20076;-66
2023/07/09 09:56:36;;;;;;;10.30;5.43;;;29.60;99.90;;;;;;4877679;29;20057;-66
2023/07/09 09:59:03;;;;;;;7.55;4.70;;;29.80;99.90;;;;;;4877634;29;20053;-66
2023/07/09 10:01:35;;;;;;;8.63;4.97;;;29.90;99.90;;;;;;4877558;29;20071;-66
2023/07/09 10:04:03;;;;;;;12.18;5.45;;;29.90;99.90;;;;;;4876216;29;20086;-66
2023/07/09 10:06:34;;;;;;;9.23;4.85;;;30.00;99.90;;;;;;4877383;29;20057;-66
2023/07/09 10:09:26;;;;;;;13.43;5.25;;;30.00;99.90;;;;;;4877798;29;20053;-67
2023/07/09 10:12:11;;;;;;;10.50;4.85;;;30.10;99.90;;;;;;4875645;29;20107;-66
2023/07/09 10:14:57;;;;;;;11.98;5.80;;;30.10;99.90;;;;;;4877577;29;20053;-67
2023/07/09 10:17:39;;;;;;;8.90;5.32;;;30.20;99.90;;;;;;4847675;29;20120;-66
2023/07/09 10:20:37;;;;;;;7.85;4.93;;;30.20;99.90;;;;;;4877431;29;20069;-67
2023/07/09 10:23:18;;;;;;;10.95;4.88;;;30.40;99.90;;;;;;4877385;29;20052;-66
2023/07/09 10:26:03;;;;;;;9.23;5.28;;;30.40;99.90;;;;;;4876673;29;20056;-67
2023/07/09 10:28:44;;;;;;;9.70;5.45;;;30.40;99.90;;;;;;4877316;29;20060;-67
2023/07/09 10:31:31;;;;;;;8.55;5.40;;;30.40;99.90;;;;;;4877349;29;20479;-67
2023/07/09 10:34:19;;;;;;;9.88;5.70;;;30.50;99.90;;;;;;4877031;29;20045;-66
2023/07/09 10:36:58;;;;;;;10.20;4.93;;;30.60;99.90;;;;;;4877411;29;20045;-67
2023/07/09 10:39:33;;;;;;;11.35;4.95;;;30.60;99.90;;;;;;4876907;29;20521;-66
2023/07/09 10:42:01;;;;;;;7.85;5.25;;;30.60;99.90;;;;;;4876931;29;20055;-66
2023/07/09 10:44:39;;;;;;;10.32;5.20;;;30.70;99.90;;;;;;4877329;29;20056;-67
2023/07/09 10:47:11;;;;;;;7.20;4.97;;;30.60;99.90;;;;;;4860220;29;20489;-67
2023/07/09 10:49:41;;;;;;;12.82;4.60;;;30.80;99.90;;;;;;4876363;29;20053;-67
2023/07/09 10:52:14;;;;;;;9.93;5.53;;;30.80;99.90;;;;;;4876738;29;20113;-66
2023/07/09 10:55:13;;;;;;;9.80;5.13;;;30.70;99.90;;;;;;4879591;29;20128;-66
2023/07/09 10:58:00;;;;;;;8.80;4.40;;;30.90;99.90;;;;;;4880211;29;20145;-66
2023/07/09 11:00:38;;;;;;;8.55;5.40;;;30.90;99.90;;;;;;4878105;29;20059;-66
2023/07/09 11:03:21;;;;;;;10.40;5.05;;;30.90;99.90;;;;;;4880668;29;20398;-66
2023/07/09 11:05:48;;;;;;;9.50;5.15;;;30.80;98.90;;;;;;4880433;29;20060;-66
2023/07/09 11:08:20;;;;;;;8.77;5.15;;;30.80;99.70;;;;;;4865313;29;20053;-65
2023/07/09 11:10:58;;;;;;;10.65;5.20;;;30.90;99.80;;;;;;4866587;29;20067;-64
2023/07/09 11:13:30;;;;;;;9.10;5.07;;;31.00;99.40;;;;;;4880114;29;20417;-66
2023/07/09 11:15:57;;;;;;;8.70;4.63;;;30.80;99.30;;;;;;4880634;29;20065;-66
2023/07/09 11:18:26;;;;;;;9.25;5.03;;;30.70;99.70;;;;;;4880559;29;20056;-66
2023/07/09 11:21:16;;;;;;;6.65;5.32;;;30.90;99.90;;;;;;4878873;29;20125;-66
2023/07/09 11:23:53;;;;;;;9.30;4.90;;;30.70;98.80;;;;;;4872775;29;20064;-66
2023/07/09 11:26:31;;;;;;;8.25;5.10;;;30.80;99.80;;;;;;4879848;29;20045;-66
2023/07/09 11:29:06;;;;;;;10.65;5.07;;;31.00;99.30;;;;;;4879389;29;20401;-66
2023/07/09 11:31:36;;;;;;;9.65;5.28;;;31.00;98.70;;;;;;4880306;29;20470;-66
2023/07/09 11:34:07;;;;;;;7.03;4.72;;;31.10;99.40;;;;;;4878704;29;20545;-66
2023/07/09 11:36:45;;;;;;;7.57;4.68;;;31.00;98.80;;;;;;4879878;29;20064;-66
2023/07/09 11:39:26;;;;;;;8.75;4.95;;;31.00;99.70;;;;;;4879979;29;20090;-66
2023/07/09 11:41:52;;;;;;;10.00;4.97;;;31.10;99.00;;;;;;4880196;29;20049;-66
2023/07/09 11:44:23;;;;;;;6.85;4.38;;;31.20;99.40;;;;;;4879915;29;20045;-66
2023/07/09 11:47:11;;;;;;;12.05;4.35;;;31.20;99.10;;;;;;4883001;29;20417;-66
2023/07/09 11:49:59;;;;;;;8.50;4.97;;;31.20;99.00;;;;;;4898823;29;20096;-66
2023/07/09 11:52:53;;;;;;;11.98;4.68;;;31.40;99.10;;;;;;4881697;29;20056;-66
2023/07/09 11:55:43;;;;;;;9.82;4.85;;;31.40;99.00;;;;;;4878491;29;20412;-65
2023/07/09 11:58:12;;;;;;;7.82;4.57;;;31.40;98.30;;;;;;4862163;29;20052;-66
2023/07/09 12:00:53;;;;;;;7.45;4.70;;;31.50;99.20;;;;;;4898487;29;20052;-66
2023/07/09 12:03:24;;;;;;;10.43;4.95;;;31.40;98.60;;;;;;4898199;29;20174;-66
2023/07/09 12:05:55;;;;;;;7.03;4.80;;;31.50;98.90;;;;;;4898137;29;20080;-66
2023/07/09 12:08:39;;;;;;;9.40;4.88;;;31.50;98.00;;;;;;4898242;29;20414;-66
2023/07/09 12:11:06;;;;;;;10.90;4.35;;;31.50;98.50;;;;;;4898558;29;20048;-66
2023/07/09 12:13:39;;;;;;;8.90;4.00;;;31.50;98.40;;;;;;4898350;29;20060;-66
2023/07/09 12:16:34;;;;;;;9.43;4.25;;;31.60;97.90;;;;;;4898534;29;20104;-66
2023/07/09 12:18:59;;;;;;;8.90;4.05;;;31.60;98.50;;;;;;4898234;29;20200;-66
2023/07/09 12:21:26;;;;;;;6.43;4.28;;;31.70;98.40;;;;;;4897989;29;20441;-66
2023/07/09 12:23:54;;;;;;;7.82;4.22;;;31.80;97.90;;;;;;4897970;29;20131;-66
2023/07/09 12:26:20;;;;;;;8.45;4.68;;;31.80;98.20;;;;;;4897967;29;20441;-66
2023/07/09 12:28:53;;;;;;;10.52;5.18;;;31.80;98.00;;;;;;4897779;29;20101;-66
2023/07/09 12:31:26;;;;;;;11.25;5.07;;;31.80;97.30;;;;;;4897952;29;20064;-66
2023/07/09 12:33:54;;;;;;;7.25;4.20;;;31.70;97.70;;;;;;4897724;29;20059;-66
2023/07/09 12:36:21;;;;;;;5.75;4.13;;;31.70;98.00;;;;;;4897684;29;20087;-66
2023/07/09 12:38:50;;;;;;;6.68;4.15;;;31.80;97.80;;;;;;4897627;29;20086;-66
2023/07/09 12:41:24;;;;;;;12.88;4.10;;;31.80;97.00;;;;;;4897533;29;20048;-66
2023/07/09 12:43:52;;;;;;;8.35;3.95;;;31.80;97.50;;;;;;4881346;29;20382;-66
2023/07/09 12:46:19;;;;;;;6.43;4.35;;;31.80;97.70;;;;;;4881097;29;20068;-66
2023/07/09 12:48:50;;;;;;;9.23;4.05;;;31.90;97.80;;;;;;4897708;29;20060;-66
2023/07/09 12:51:20;;;;;;;11.13;3.95;;;31.80;97.50;;;;;;4897524;29;20059;-66